sensor_id;sensor_type;location;lat;lon;timestamp;P1;durP1;ratioP1;P2;durP2;ratioP2
70199;SDS011;57587;55.688;37.600;2022-11-09T00:01:36;26.85;;;10.48;;
70199;SDS011;57587;55.688;37.600;2022-11-09T00:04:04;23.60;;;10.45;;
70199;SDS011;57587;55.688;37.600;2022-11-09T00:06:32;23.13;;;10.32;;
70199;SDS011;57587;55.688;37.600;2022-11-09T00:09:02;22.92;;;9.98;;
70199;SDS011;57587;55.688;37.600;2022-11-09T00:11:34;29.50;;;11.80;;
70199;SDS011;57587;55.688;37.600;2022-11-09T00:14:03;19.30;;;9.30;;
70199;SDS011;57587;55.688;37.600;2022-11-09T00:16:30;29.15;;;10.77;;
70199;SDS011;57587;55.688;37.600;2022-11-09T00:18:58;27.60;;;10.48;;
70199;SDS011;57587;55.688;37.600;2022-11-09T00:21:27;22.10;;;10.80;;
70199;SDS011;57587;55.688;37.600;2022-11-09T00:23:55;22.20;;;9.90;;
70199;SDS011;57587;55.688;37.600;2022-11-09T00:26:22;23.50;;;11.13;;
70199;SDS011;57587;55.688;37.600;2022-11-09T00:28:49;22.35;;;10.07;;
70199;SDS011;57587;55.688;37.600;2022-11-09T00:31:18;24.15;;;10.73;;
70199;SDS011;57587;55.688;37.600;2022-11-09T00:33:52;24.40;;;11.20;;
70199;SDS011;57587;55.688;37.600;2022-11-09T00:36:21;30.23;;;10.83;;
70199;SDS011;57587;55.688;37.600;2022-11-09T00:38:53;23.00;;;10.23;;
70199;SDS011;57587;55.688;37.600;2022-11-09T00:41:22;25.58;;;10.55;;
70199;SDS011;57587;55.688;37.600;2022-11-09T00:43:50;26.73;;;11.20;;
70199;SDS011;57587;55.688;37.600;2022-11-09T00:46:18;28.65;;;11.70;;
70199;SDS011;57587;55.688;37.600;2022-11-09T00:48:48;26.07;;;11.23;;
70199;SDS011;57587;55.688;37.600;2022-11-09T00:51:16;24.73;;;11.02;;
70199;SDS011;57587;55.688;37.600;2022-11-09T00:53:44;27.02;;;12.02;;
70199;SDS011;57587;55.688;37.600;2022-11-09T00:56:14;24.75;;;11.25;;
70199;SDS011;57587;55.688;37.600;2022-11-09T00:58:41;27.73;;;12.20;;
70199;SDS011;57587;55.688;37.600;2022-11-09T01:01:12;27.17;;;11.53;;
70199;SDS011;57587;55.688;37.600;2022-11-09T01:03:44;24.95;;;11.80;;
70199;SDS011;57587;55.688;37.600;2022-11-09T01:06:16;30.35;;;12.00;;
70199;SDS011;57587;55.688;37.600;2022-11-09T01:08:47;26.75;;;11.60;;
70199;SDS011;57587;55.688;37.600;2022-11-09T01:11:15;27.30;;;11.70;;
70199;SDS011;57587;55.688;37.600;2022-11-09T01:13:43;26.03;;;11.57;;
70199;SDS011;57587;55.688;37.600;2022-11-09T01:16:12;28.67;;;11.75;;
70199;SDS011;57587;55.688;37.600;2022-11-09T01:18:41;26.90;;;11.27;;
70199;SDS011;57587;55.688;37.600;2022-11-09T01:21:10;25.10;;;11.75;;
70199;SDS011;57587;55.688;37.600;2022-11-09T01:23:39;30.40;;;11.68;;
70199;SDS011;57587;55.688;37.600;2022-11-09T01:26:07;25.67;;;11.30;;
70199;SDS011;57587;55.688;37.600;2022-11-09T01:28:36;29.00;;;12.43;;
70199;SDS011;57587;55.688;37.600;2022-11-09T01:31:04;23.98;;;10.98;;
70199;SDS011;57587;55.688;37.600;2022-11-09T01:33:36;25.48;;;11.05;;
70199;SDS011;57587;55.688;37.600;2022-11-09T01:36:03;28.60;;;11.95;;
70199;SDS011;57587;55.688;37.600;2022-11-09T01:38:32;26.90;;;11.53;;
70199;SDS011;57587;55.688;37.600;2022-11-09T01:41:00;28.35;;;11.77;;
70199;SDS011;57587;55.688;37.600;2022-11-09T01:43:28;30.52;;;12.32;;
70199;SDS011;57587;55.688;37.600;2022-11-09T01:48:45;27.00;;;11.55;;
70199;SDS011;57587;55.688;37.600;2022-11-09T01:53:48;32.08;;;12.48;;
70199;SDS011;57587;55.688;37.600;2022-11-09T01:56:18;30.67;;;12.27;;
70199;SDS011;57587;55.688;37.600;2022-11-09T01:59:21;29.10;;;12.63;;
70199;SDS011;57587;55.688;37.600;2022-11-09T02:01:44;30.70;;;11.93;;
70199;SDS011;57587;55.688;37.600;2022-11-09T02:04:13;29.43;;;12.17;;
70199;SDS011;57587;55.688;37.600;2022-11-09T02:06:44;27.20;;;11.93;;
70199;SDS011;57587;55.688;37.600;2022-11-09T02:09:20;25.23;;;11.48;;
70199;SDS011;57587;55.688;37.600;2022-11-09T02:11:52;24.92;;;11.85;;
70199;SDS011;57587;55.688;37.600;2022-11-09T02:14:19;29.02;;;12.02;;
70199;SDS011;57587;55.688;37.600;2022-11-09T02:16:49;28.63;;;11.77;;
70199;SDS011;57587;55.688;37.600;2022-11-09T02:19:16;30.48;;;11.80;;
70199;SDS011;57587;55.688;37.600;2022-11-09T02:21:44;28.70;;;11.77;;
70199;SDS011;57587;55.688;37.600;2022-11-09T02:24:11;30.08;;;12.15;;
70199;SDS011;57587;55.688;37.600;2022-11-09T02:26:43;29.15;;;12.77;;
70199;SDS011;57587;55.688;37.600;2022-11-09T02:29:15;29.33;;;12.30;;
70199;SDS011;57587;55.688;37.600;2022-11-09T02:31:47;31.58;;;12.70;;
70199;SDS011;57587;55.688;37.600;2022-11-09T02:34:19;24.88;;;11.27;;
70199;SDS011;57587;55.688;37.600;2022-11-09T02:36:47;25.05;;;11.32;;
70199;SDS011;57587;55.688;37.600;2022-11-09T02:39:20;27.55;;;11.05;;
70199;SDS011;57587;55.688;37.600;2022-11-09T02:44:50;19.38;;;9.30;;
70199;SDS011;57587;55.688;37.600;2022-11-09T02:47:21;22.30;;;9.65;;
70199;SDS011;57587;55.688;37.600;2022-11-09T02:49:48;22.30;;;9.43;;
70199;SDS011;57587;55.688;37.600;2022-11-09T02:52:16;19.50;;;8.63;;
70199;SDS011;57587;55.688;37.600;2022-11-09T02:54:44;19.67;;;9.53;;
70199;SDS011;57587;55.688;37.600;2022-11-09T02:57:12;22.20;;;10.02;;
70199;SDS011;57587;55.688;37.600;2022-11-09T02:59:41;22.42;;;9.50;;
70199;SDS011;57587;55.688;37.600;2022-11-09T03:02:11;19.58;;;9.07;;
70199;SDS011;57587;55.688;37.600;2022-11-09T03:04:38;21.23;;;9.25;;
70199;SDS011;57587;55.688;37.600;2022-11-09T03:07:06;19.80;;;8.70;;
70199;SDS011;57587;55.688;37.600;2022-11-09T03:09:34;20.23;;;9.27;;
70199;SDS011;57587;55.688;37.600;2022-11-09T03:12:02;20.20;;;9.13;;
70199;SDS011;57587;55.688;37.600;2022-11-09T03:14:49;18.98;;;8.90;;
70199;SDS011;57587;55.688;37.600;2022-11-09T03:17:17;24.35;;;9.63;;
70199;SDS011;57587;55.688;37.600;2022-11-09T03:19:44;17.87;;;8.30;;
70199;SDS011;57587;55.688;37.600;2022-11-09T03:22:12;19.70;;;9.32;;
70199;SDS011;57587;55.688;37.600;2022-11-09T03:24:39;18.17;;;8.18;;
70199;SDS011;57587;55.688;37.600;2022-11-09T03:27:07;18.38;;;8.57;;
70199;SDS011;57587;55.688;37.600;2022-11-09T03:29:34;17.92;;;8.35;;
70199;SDS011;57587;55.688;37.600;2022-11-09T03:32:01;18.90;;;8.37;;
70199;SDS011;57587;55.688;37.600;2022-11-09T03:34:28;17.55;;;8.30;;
70199;SDS011;57587;55.688;37.600;2022-11-09T03:36:56;17.83;;;8.52;;
70199;SDS011;57587;55.688;37.600;2022-11-09T03:39:23;18.90;;;8.48;;
70199;SDS011;57587;55.688;37.600;2022-11-09T03:41:50;17.77;;;9.07;;
70199;SDS011;57587;55.688;37.600;2022-11-09T03:44:17;15.97;;;8.53;;
70199;SDS011;57587;55.688;37.600;2022-11-09T03:46:46;20.08;;;8.80;;
70199;SDS011;57587;55.688;37.600;2022-11-09T03:49:16;22.27;;;9.35;;
70199;SDS011;57587;55.688;37.600;2022-11-09T03:51:44;16.60;;;8.82;;
70199;SDS011;57587;55.688;37.600;2022-11-09T03:54:11;17.75;;;8.43;;
70199;SDS011;57587;55.688;37.600;2022-11-09T03:56:38;21.27;;;8.83;;
70199;SDS011;57587;55.688;37.600;2022-11-09T03:59:05;17.65;;;9.10;;
70199;SDS011;57587;55.688;37.600;2022-11-09T04:01:32;18.52;;;9.40;;
70199;SDS011;57587;55.688;37.600;2022-11-09T04:03:59;21.17;;;9.40;;
70199;SDS011;57587;55.688;37.600;2022-11-09T04:06:26;20.40;;;8.77;;
70199;SDS011;57587;55.688;37.600;2022-11-09T04:08:53;19.30;;;9.30;;
70199;SDS011;57587;55.688;37.600;2022-11-09T04:11:20;18.10;;;8.82;;
70199;SDS011;57587;55.688;37.600;2022-11-09T04:13:50;18.90;;;9.48;;
70199;SDS011;57587;55.688;37.600;2022-11-09T04:16:17;18.65;;;8.70;;
70199;SDS011;57587;55.688;37.600;2022-11-09T04:18:46;20.85;;;9.18;;
70199;SDS011;57587;55.688;37.600;2022-11-09T04:21:13;20.47;;;9.23;;
70199;SDS011;57587;55.688;37.600;2022-11-09T04:23:47;24.70;;;11.25;;
70199;SDS011;57587;55.688;37.600;2022-11-09T04:26:15;24.38;;;12.48;;
70199;SDS011;57587;55.688;37.600;2022-11-09T04:28:42;18.92;;;9.20;;
70199;SDS011;57587;55.688;37.600;2022-11-09T04:31:09;22.05;;;9.07;;
70199;SDS011;57587;55.688;37.600;2022-11-09T04:33:36;18.00;;;8.77;;
70199;SDS011;57587;55.688;37.600;2022-11-09T04:36:03;19.88;;;9.32;;
70199;SDS011;57587;55.688;37.600;2022-11-09T04:38:31;21.42;;;9.18;;
70199;SDS011;57587;55.688;37.600;2022-11-09T04:40:59;21.83;;;9.40;;
70199;SDS011;57587;55.688;37.600;2022-11-09T04:43:27;18.98;;;9.02;;
70199;SDS011;57587;55.688;37.600;2022-11-09T04:45:57;16.73;;;9.50;;
70199;SDS011;57587;55.688;37.600;2022-11-09T04:48:27;19.00;;;9.52;;
70199;SDS011;57587;55.688;37.600;2022-11-09T04:50:58;20.23;;;9.75;;
70199;SDS011;57587;55.688;37.600;2022-11-09T04:53:29;19.05;;;9.20;;
70199;SDS011;57587;55.688;37.600;2022-11-09T04:55:57;21.58;;;9.90;;
70199;SDS011;57587;55.688;37.600;2022-11-09T04:58:24;22.33;;;10.13;;
70199;SDS011;57587;55.688;37.600;2022-11-09T05:00:53;17.83;;;9.60;;
70199;SDS011;57587;55.688;37.600;2022-11-09T05:03:22;20.83;;;9.50;;
70199;SDS011;57587;55.688;37.600;2022-11-09T05:05:50;24.20;;;10.15;;
70199;SDS011;57587;55.688;37.600;2022-11-09T05:08:17;18.10;;;9.02;;
70199;SDS011;57587;55.688;37.600;2022-11-09T05:10:43;18.90;;;10.40;;
70199;SDS011;57587;55.688;37.600;2022-11-09T05:13:11;16.92;;;9.73;;
70199;SDS011;57587;55.688;37.600;2022-11-09T05:15:39;23.00;;;9.68;;
70199;SDS011;57587;55.688;37.600;2022-11-09T05:18:07;19.40;;;9.35;;
70199;SDS011;57587;55.688;37.600;2022-11-09T05:20:34;18.73;;;9.45;;
70199;SDS011;57587;55.688;37.600;2022-11-09T05:23:03;18.27;;;9.53;;
70199;SDS011;57587;55.688;37.600;2022-11-09T05:25:49;20.10;;;9.45;;
70199;SDS011;57587;55.688;37.600;2022-11-09T05:28:16;18.75;;;9.30;;
70199;SDS011;57587;55.688;37.600;2022-11-09T05:30:46;20.30;;;9.77;;
70199;SDS011;57587;55.688;37.600;2022-11-09T05:33:13;18.17;;;9.02;;
70199;SDS011;57587;55.688;37.600;2022-11-09T05:35:42;19.30;;;8.53;;
70199;SDS011;57587;55.688;37.600;2022-11-09T05:38:09;17.60;;;8.82;;
70199;SDS011;57587;55.688;37.600;2022-11-09T05:40:36;16.27;;;8.35;;
70199;SDS011;57587;55.688;37.600;2022-11-09T05:43:03;18.17;;;8.75;;
70199;SDS011;57587;55.688;37.600;2022-11-09T05:45:31;14.25;;;8.32;;
70199;SDS011;57587;55.688;37.600;2022-11-09T05:48:14;17.13;;;8.87;;
70199;SDS011;57587;55.688;37.600;2022-11-09T05:50:42;15.63;;;7.80;;
70199;SDS011;57587;55.688;37.600;2022-11-09T05:53:22;15.43;;;7.85;;
70199;SDS011;57587;55.688;37.600;2022-11-09T05:55:49;16.25;;;8.23;;
70199;SDS011;57587;55.688;37.600;2022-11-09T05:58:16;17.10;;;9.15;;
70199;SDS011;57587;55.688;37.600;2022-11-09T06:00:43;16.17;;;8.63;;
70199;SDS011;57587;55.688;37.600;2022-11-09T06:03:10;16.92;;;8.32;;
70199;SDS011;57587;55.688;37.600;2022-11-09T06:05:38;19.23;;;9.48;;
70199;SDS011;57587;55.688;37.600;2022-11-09T06:08:07;16.45;;;8.88;;
70199;SDS011;57587;55.688;37.600;2022-11-09T06:10:39;15.88;;;8.55;;
70199;SDS011;57587;55.688;37.600;2022-11-09T06:13:07;24.17;;;9.27;;
70199;SDS011;57587;55.688;37.600;2022-11-09T06:15:34;18.52;;;8.70;;
70199;SDS011;57587;55.688;37.600;2022-11-09T06:18:01;17.67;;;9.18;;
70199;SDS011;57587;55.688;37.600;2022-11-09T06:23:23;16.45;;;8.48;;
70199;SDS011;57587;55.688;37.600;2022-11-09T06:25:57;17.20;;;8.80;;
70199;SDS011;57587;55.688;37.600;2022-11-09T06:28:26;16.13;;;8.93;;
70199;SDS011;57587;55.688;37.600;2022-11-09T06:31:00;16.15;;;8.23;;
70199;SDS011;57587;55.688;37.600;2022-11-09T06:33:29;18.23;;;8.55;;
70199;SDS011;57587;55.688;37.600;2022-11-09T06:35:57;16.63;;;8.15;;
70199;SDS011;57587;55.688;37.600;2022-11-09T06:38:24;14.97;;;8.03;;
70199;SDS011;57587;55.688;37.600;2022-11-09T06:40:52;20.73;;;10.80;;
70199;SDS011;57587;55.688;37.600;2022-11-09T06:43:21;18.60;;;8.95;;
70199;SDS011;57587;55.688;37.600;2022-11-09T06:45:49;17.52;;;8.45;;
70199;SDS011;57587;55.688;37.600;2022-11-09T06:48:17;17.95;;;8.90;;
70199;SDS011;57587;55.688;37.600;2022-11-09T06:50:44;17.93;;;9.00;;
70199;SDS011;57587;55.688;37.600;2022-11-09T06:53:12;18.15;;;9.10;;
70199;SDS011;57587;55.688;37.600;2022-11-09T06:55:41;15.90;;;8.32;;
70199;SDS011;57587;55.688;37.600;2022-11-09T06:58:16;16.83;;;8.10;;
70199;SDS011;57587;55.688;37.600;2022-11-09T07:00:44;17.42;;;8.88;;
70199;SDS011;57587;55.688;37.600;2022-11-09T07:03:14;18.40;;;9.03;;
70199;SDS011;57587;55.688;37.600;2022-11-09T07:05:45;17.13;;;9.93;;
70199;SDS011;57587;55.688;37.600;2022-11-09T07:08:14;19.48;;;8.55;;
70199;SDS011;57587;55.688;37.600;2022-11-09T07:10:42;20.17;;;8.77;;
70199;SDS011;57587;55.688;37.600;2022-11-09T07:13:10;19.42;;;8.90;;
70199;SDS011;57587;55.688;37.600;2022-11-09T07:15:38;15.30;;;7.57;;
70199;SDS011;57587;55.688;37.600;2022-11-09T07:18:06;21.38;;;8.80;;
70199;SDS011;57587;55.688;37.600;2022-11-09T07:20:35;18.10;;;8.68;;
70199;SDS011;57587;55.688;37.600;2022-11-09T07:23:03;18.05;;;8.68;;
70199;SDS011;57587;55.688;37.600;2022-11-09T07:25:30;17.60;;;9.02;;
70199;SDS011;57587;55.688;37.600;2022-11-09T07:28:02;15.37;;;8.30;;
70199;SDS011;57587;55.688;37.600;2022-11-09T07:30:30;17.58;;;8.82;;
70199;SDS011;57587;55.688;37.600;2022-11-09T07:32:57;16.55;;;8.23;;
70199;SDS011;57587;55.688;37.600;2022-11-09T07:35:40;17.33;;;8.60;;
70199;SDS011;57587;55.688;37.600;2022-11-09T07:38:08;18.73;;;8.68;;
70199;SDS011;57587;55.688;37.600;2022-11-09T07:40:35;17.90;;;8.33;;
70199;SDS011;57587;55.688;37.600;2022-11-09T07:43:03;19.13;;;8.55;;
70199;SDS011;57587;55.688;37.600;2022-11-09T07:45:32;17.60;;;8.70;;
70199;SDS011;57587;55.688;37.600;2022-11-09T07:48:01;16.75;;;8.32;;
70199;SDS011;57587;55.688;37.600;2022-11-09T07:50:31;18.88;;;8.93;;
70199;SDS011;57587;55.688;37.600;2022-11-09T07:52:59;18.10;;;9.13;;
70199;SDS011;57587;55.688;37.600;2022-11-09T07:55:28;18.73;;;8.43;;
70199;SDS011;57587;55.688;37.600;2022-11-09T07:57:56;19.58;;;9.05;;
70199;SDS011;57587;55.688;37.600;2022-11-09T08:00:29;19.38;;;8.75;;
70199;SDS011;57587;55.688;37.600;2022-11-09T08:02:58;17.52;;;8.65;;
70199;SDS011;57587;55.688;37.600;2022-11-09T08:05:25;18.43;;;8.40;;
70199;SDS011;57587;55.688;37.600;2022-11-09T08:07:56;17.70;;;7.97;;
70199;SDS011;57587;55.688;37.600;2022-11-09T08:10:26;17.27;;;9.23;;
70199;SDS011;57587;55.688;37.600;2022-11-09T08:12:55;19.70;;;8.57;;
70199;SDS011;57587;55.688;37.600;2022-11-09T08:15:26;21.45;;;9.30;;
70199;SDS011;57587;55.688;37.600;2022-11-09T08:17:53;17.83;;;8.83;;
70199;SDS011;57587;55.688;37.600;2022-11-09T08:20:25;19.08;;;9.50;;
70199;SDS011;57587;55.688;37.600;2022-11-09T08:22:52;18.85;;;9.23;;
70199;SDS011;57587;55.688;37.600;2022-11-09T08:25:20;18.08;;;8.73;;
70199;SDS011;57587;55.688;37.600;2022-11-09T08:27:47;17.58;;;9.13;;
70199;SDS011;57587;55.688;37.600;2022-11-09T08:30:15;20.17;;;8.70;;
70199;SDS011;57587;55.688;37.600;2022-11-09T08:32:47;17.75;;;8.50;;
70199;SDS011;57587;55.688;37.600;2022-11-09T08:35:16;17.42;;;8.00;;
70199;SDS011;57587;55.688;37.600;2022-11-09T08:37:47;17.70;;;8.23;;
70199;SDS011;57587;55.688;37.600;2022-11-09T08:40:16;19.17;;;8.77;;
70199;SDS011;57587;55.688;37.600;2022-11-09T08:42:46;14.23;;;6.60;;
70199;SDS011;57587;55.688;37.600;2022-11-09T08:45:13;14.38;;;6.32;;
70199;SDS011;57587;55.688;37.600;2022-11-09T08:47:40;13.80;;;7.10;;
70199;SDS011;57587;55.688;37.600;2022-11-09T08:50:08;11.27;;;6.43;;
70199;SDS011;57587;55.688;37.600;2022-11-09T08:52:36;13.85;;;6.60;;
70199;SDS011;57587;55.688;37.600;2022-11-09T08:55:06;11.97;;;6.07;;
70199;SDS011;57587;55.688;37.600;2022-11-09T08:57:33;12.73;;;6.68;;
70199;SDS011;57587;55.688;37.600;2022-11-09T09:00:00;11.68;;;6.65;;
70199;SDS011;57587;55.688;37.600;2022-11-09T09:02:29;11.77;;;6.22;;
70199;SDS011;57587;55.688;37.600;2022-11-09T09:04:59;11.88;;;6.90;;
70199;SDS011;57587;55.688;37.600;2022-11-09T09:07:28;13.00;;;6.30;;
70199;SDS011;57587;55.688;37.600;2022-11-09T09:09:56;12.60;;;7.15;;
70199;SDS011;57587;55.688;37.600;2022-11-09T09:12:23;11.75;;;6.55;;
70199;SDS011;57587;55.688;37.600;2022-11-09T09:14:50;14.07;;;7.43;;
70199;SDS011;57587;55.688;37.600;2022-11-09T09:17:19;13.15;;;6.72;;
70199;SDS011;57587;55.688;37.600;2022-11-09T09:19:46;12.93;;;7.07;;
70199;SDS011;57587;55.688;37.600;2022-11-09T09:22:15;14.82;;;6.97;;
70199;SDS011;57587;55.688;37.600;2022-11-09T09:24:43;14.60;;;6.55;;
70199;SDS011;57587;55.688;37.600;2022-11-09T09:27:10;12.45;;;6.50;;
70199;SDS011;57587;55.688;37.600;2022-11-09T09:29:37;14.85;;;6.72;;
70199;SDS011;57587;55.688;37.600;2022-11-09T09:32:05;14.20;;;6.80;;
70199;SDS011;57587;55.688;37.600;2022-11-09T09:34:32;11.73;;;6.65;;
70199;SDS011;57587;55.688;37.600;2022-11-09T09:36:59;15.50;;;7.30;;
70199;SDS011;57587;55.688;37.600;2022-11-09T09:39:27;14.52;;;7.13;;
70199;SDS011;57587;55.688;37.600;2022-11-09T09:41:54;15.75;;;7.20;;
70199;SDS011;57587;55.688;37.600;2022-11-09T09:44:37;20.43;;;12.10;;
70199;SDS011;57587;55.688;37.600;2022-11-09T09:47:09;15.65;;;8.57;;
70199;SDS011;57587;55.688;37.600;2022-11-09T09:49:40;15.35;;;7.97;;
70199;SDS011;57587;55.688;37.600;2022-11-09T09:57:58;18.57;;;8.40;;
70199;SDS011;57587;55.688;37.600;2022-11-09T10:00:34;15.88;;;8.55;;
70199;SDS011;57587;55.688;37.600;2022-11-09T10:03:03;17.40;;;8.65;;
70199;SDS011;57587;55.688;37.600;2022-11-09T10:11:36;18.07;;;8.37;;
70199;SDS011;57587;55.688;37.600;2022-11-09T10:14:59;18.92;;;8.73;;
70199;SDS011;57587;55.688;37.600;2022-11-09T10:17:29;17.90;;;9.38;;
70199;SDS011;57587;55.688;37.600;2022-11-09T10:23:05;20.88;;;9.40;;
70199;SDS011;57587;55.688;37.600;2022-11-09T10:25:58;17.67;;;8.53;;
70199;SDS011;57587;55.688;37.600;2022-11-09T10:28:33;18.17;;;8.90;;
70199;SDS011;57587;55.688;37.600;2022-11-09T10:31:25;16.55;;;8.35;;
70199;SDS011;57587;55.688;37.600;2022-11-09T10:34:01;13.80;;;8.10;;
70199;SDS011;57587;55.688;37.600;2022-11-09T10:37:00;16.52;;;8.60;;
70199;SDS011;57587;55.688;37.600;2022-11-09T10:42:54;16.77;;;8.52;;
70199;SDS011;57587;55.688;37.600;2022-11-09T10:45:43;16.02;;;8.38;;
70199;SDS011;57587;55.688;37.600;2022-11-09T10:48:31;18.05;;;8.55;;
70199;SDS011;57587;55.688;37.600;2022-11-09T10:51:29;16.38;;;8.93;;
70199;SDS011;57587;55.688;37.600;2022-11-09T10:54:22;15.47;;;8.13;;
70199;SDS011;57587;55.688;37.600;2022-11-09T10:57:19;18.15;;;9.07;;
70199;SDS011;57587;55.688;37.600;2022-11-09T11:00:13;17.52;;;8.77;;
70199;SDS011;57587;55.688;37.600;2022-11-09T11:03:08;17.65;;;7.85;;
70199;SDS011;57587;55.688;37.600;2022-11-09T11:06:03;19.23;;;8.75;;
70199;SDS011;57587;55.688;37.600;2022-11-09T11:11:45;22.27;;;10.80;;
70199;SDS011;57587;55.688;37.600;2022-11-09T11:14:32;18.50;;;8.82;;
70199;SDS011;57587;55.688;37.600;2022-11-09T11:17:21;18.48;;;9.60;;
70199;SDS011;57587;55.688;37.600;2022-11-09T11:20:25;17.65;;;9.00;;
70199;SDS011;57587;55.688;37.600;2022-11-09T11:23:18;15.47;;;7.97;;
70199;SDS011;57587;55.688;37.600;2022-11-09T11:29:10;19.23;;;8.95;;
70199;SDS011;57587;55.688;37.600;2022-11-09T11:32:07;17.13;;;7.93;;
70199;SDS011;57587;55.688;37.600;2022-11-09T11:34:55;17.30;;;8.60;;
70199;SDS011;57587;55.688;37.600;2022-11-09T11:41:19;14.88;;;7.78;;
70199;SDS011;57587;55.688;37.600;2022-11-09T11:56:15;12.02;;;6.80;;
70199;SDS011;57587;55.688;37.600;2022-11-09T12:08:22;11.97;;;6.10;;
70199;SDS011;57587;55.688;37.600;2022-11-09T12:14:26;14.02;;;6.57;;
70199;SDS011;57587;55.688;37.600;2022-11-09T12:17:16;14.07;;;6.70;;
70199;SDS011;57587;55.688;37.600;2022-11-09T12:23:26;10.27;;;5.50;;
70199;SDS011;57587;55.688;37.600;2022-11-09T12:30:13;11.95;;;6.55;;
70199;SDS011;57587;55.688;37.600;2022-11-09T12:33:02;13.32;;;6.57;;
70199;SDS011;57587;55.688;37.600;2022-11-09T12:36:02;11.15;;;6.60;;
70199;SDS011;57587;55.688;37.600;2022-11-09T12:41:50;10.25;;;6.07;;
70199;SDS011;57587;55.688;37.600;2022-11-09T12:44:41;12.07;;;6.25;;
70199;SDS011;57587;55.688;37.600;2022-11-09T12:47:33;10.63;;;6.18;;
70199;SDS011;57587;55.688;37.600;2022-11-09T12:50:26;10.55;;;6.40;;
70199;SDS011;57587;55.688;37.600;2022-11-09T12:53:20;10.93;;;6.40;;
70199;SDS011;57587;55.688;37.600;2022-11-09T12:56:14;12.85;;;6.90;;
70199;SDS011;57587;55.688;37.600;2022-11-09T13:02:13;12.07;;;6.75;;
70199;SDS011;57587;55.688;37.600;2022-11-09T13:05:27;10.52;;;6.10;;
70199;SDS011;57587;55.688;37.600;2022-11-09T13:08:17;12.03;;;6.37;;
70199;SDS011;57587;55.688;37.600;2022-11-09T13:11:51;12.07;;;6.25;;
70199;SDS011;57587;55.688;37.600;2022-11-09T13:17:50;12.98;;;7.05;;
70199;SDS011;57587;55.688;37.600;2022-11-09T13:23:40;13.50;;;6.90;;
70199;SDS011;57587;55.688;37.600;2022-11-09T13:29:55;12.32;;;6.28;;
70199;SDS011;57587;55.688;37.600;2022-11-09T13:32:42;13.88;;;7.35;;
70199;SDS011;57587;55.688;37.600;2022-11-09T13:38:35;14.73;;;7.20;;
70199;SDS011;57587;55.688;37.600;2022-11-09T13:41:43;14.13;;;7.50;;
70199;SDS011;57587;55.688;37.600;2022-11-09T13:44:28;15.00;;;7.70;;
70199;SDS011;57587;55.688;37.600;2022-11-09T13:47:22;14.52;;;7.45;;
70199;SDS011;57587;55.688;37.600;2022-11-09T13:50:19;13.88;;;7.40;;
70199;SDS011;57587;55.688;37.600;2022-11-09T13:56:34;15.63;;;7.22;;
70199;SDS011;57587;55.688;37.600;2022-11-09T14:02:19;13.18;;;7.28;;
70199;SDS011;57587;55.688;37.600;2022-11-09T14:08:27;15.53;;;7.33;;
70199;SDS011;57587;55.688;37.600;2022-11-09T14:11:25;14.55;;;8.65;;
70199;SDS011;57587;55.688;37.600;2022-11-09T14:14:24;15.57;;;8.00;;
70199;SDS011;57587;55.688;37.600;2022-11-09T14:17:32;13.85;;;7.63;;
70199;SDS011;57587;55.688;37.600;2022-11-09T14:23:23;16.30;;;8.07;;
70199;SDS011;57587;55.688;37.600;2022-11-09T14:26:19;16.83;;;7.55;;
70199;SDS011;57587;55.688;37.600;2022-11-09T14:29:10;16.15;;;8.00;;
70199;SDS011;57587;55.688;37.600;2022-11-09T14:32:21;15.07;;;8.00;;
70199;SDS011;57587;55.688;37.600;2022-11-09T14:38:23;18.17;;;8.67;;
70199;SDS011;57587;55.688;37.600;2022-11-09T14:41:21;20.52;;;8.40;;
70199;SDS011;57587;55.688;37.600;2022-11-09T14:44:14;19.38;;;8.65;;
70199;SDS011;57587;55.688;37.600;2022-11-09T14:47:21;19.00;;;8.38;;
70199;SDS011;57587;55.688;37.600;2022-11-09T14:53:14;19.33;;;8.80;;
70199;SDS011;57587;55.688;37.600;2022-11-09T14:56:07;18.60;;;9.18;;
70199;SDS011;57587;55.688;37.600;2022-11-09T14:58:55;19.38;;;9.20;;
70199;SDS011;57587;55.688;37.600;2022-11-09T15:05:00;16.95;;;9.02;;
70199;SDS011;57587;55.688;37.600;2022-11-09T15:07:48;18.57;;;8.80;;
70199;SDS011;57587;55.688;37.600;2022-11-09T15:10:33;20.40;;;9.98;;
70199;SDS011;57587;55.688;37.600;2022-11-09T15:16:21;16.50;;;8.80;;
70199;SDS011;57587;55.688;37.600;2022-11-09T15:28:28;19.33;;;9.52;;
70199;SDS011;57587;55.688;37.600;2022-11-09T15:31:15;16.83;;;9.00;;
70199;SDS011;57587;55.688;37.600;2022-11-09T15:34:14;23.00;;;9.75;;
70199;SDS011;57587;55.688;37.600;2022-11-09T15:40:14;19.63;;;10.40;;
70199;SDS011;57587;55.688;37.600;2022-11-09T15:43:04;19.38;;;9.77;;
70199;SDS011;57587;55.688;37.600;2022-11-09T15:45:49;23.10;;;10.60;;
70199;SDS011;57587;55.688;37.600;2022-11-09T15:48:35;22.58;;;11.20;;
70199;SDS011;57587;55.688;37.600;2022-11-09T15:51:24;25.50;;;11.27;;
70199;SDS011;57587;55.688;37.600;2022-11-09T15:54:13;22.67;;;11.00;;
70199;SDS011;57587;55.688;37.600;2022-11-09T15:56:59;18.42;;;9.10;;
70199;SDS011;57587;55.688;37.600;2022-11-09T15:59:50;25.58;;;10.55;;
70199;SDS011;57587;55.688;37.600;2022-11-09T16:02:36;24.10;;;10.63;;
70199;SDS011;57587;55.688;37.600;2022-11-09T16:05:22;21.63;;;9.77;;
70199;SDS011;57587;55.688;37.600;2022-11-09T16:08:11;21.77;;;9.85;;
70199;SDS011;57587;55.688;37.600;2022-11-09T16:10:57;24.55;;;10.02;;
70199;SDS011;57587;55.688;37.600;2022-11-09T16:13:47;21.88;;;10.30;;
70199;SDS011;57587;55.688;37.600;2022-11-09T16:16:33;21.52;;;10.82;;
70199;SDS011;57587;55.688;37.600;2022-11-09T16:19:18;20.10;;;10.17;;
70199;SDS011;57587;55.688;37.600;2022-11-09T16:22:04;21.20;;;10.43;;
70199;SDS011;57587;55.688;37.600;2022-11-09T16:24:52;22.80;;;11.40;;
70199;SDS011;57587;55.688;37.600;2022-11-09T16:27:38;28.45;;;12.55;;
70199;SDS011;57587;55.688;37.600;2022-11-09T16:30:35;22.90;;;11.73;;
70199;SDS011;57587;55.688;37.600;2022-11-09T16:33:20;22.97;;;10.67;;
70199;SDS011;57587;55.688;37.600;2022-11-09T16:36:16;25.08;;;12.15;;
70199;SDS011;57587;55.688;37.600;2022-11-09T16:39:05;23.00;;;11.57;;
70199;SDS011;57587;55.688;37.600;2022-11-09T16:41:56;23.00;;;11.38;;
70199;SDS011;57587;55.688;37.600;2022-11-09T16:44:46;19.88;;;11.10;;
70199;SDS011;57587;55.688;37.600;2022-11-09T16:47:38;20.80;;;10.63;;
70199;SDS011;57587;55.688;37.600;2022-11-09T16:50:29;22.90;;;11.60;;
70199;SDS011;57587;55.688;37.600;2022-11-09T16:53:14;21.08;;;11.32;;
70199;SDS011;57587;55.688;37.600;2022-11-09T16:56:00;22.73;;;11.40;;
70199;SDS011;57587;55.688;37.600;2022-11-09T16:58:46;21.58;;;11.38;;
70199;SDS011;57587;55.688;37.600;2022-11-09T17:01:32;17.17;;;10.17;;
70199;SDS011;57587;55.688;37.600;2022-11-09T17:04:18;22.33;;;11.13;;
70199;SDS011;57587;55.688;37.600;2022-11-09T17:07:04;29.25;;;11.25;;
70199;SDS011;57587;55.688;37.600;2022-11-09T17:09:52;24.58;;;10.90;;
70199;SDS011;57587;55.688;37.600;2022-11-09T17:12:38;22.40;;;10.57;;
70199;SDS011;57587;55.688;37.600;2022-11-09T17:15:24;20.00;;;11.27;;
70199;SDS011;57587;55.688;37.600;2022-11-09T17:18:10;21.27;;;11.05;;